createdAt,value
2022-12-14T00:01:20.808Z,98140.34
2022-12-14T00:03:48.768Z,98129.94
2022-12-14T00:06:18.980Z,98115.16
2022-12-14T00:08:50.124Z,98100.63
2022-12-14T00:11:19.869Z,98120.31
2022-12-14T00:13:52.111Z,98116.59
2022-12-14T00:16:20.316Z,98098.69
2022-12-14T00:18:50.963Z,98090.91
2022-12-14T00:21:18.721Z,98082.09
2022-12-14T00:23:47.104Z,98087.97
2022-12-14T00:26:16.139Z,98063.59
2022-12-14T00:28:44.811Z,98072.22
2022-12-14T00:31:14.005Z,98087.44
2022-12-14T00:33:41.529Z,98082.50
2022-12-14T00:36:10.872Z,98087.88
2022-12-14T00:38:38.794Z,98074.94
2022-12-14T00:41:08.163Z,98084.66
2022-12-14T00:43:35.890Z,98082.69
2022-12-14T00:46:03.430Z,98086.44
2022-12-14T00:48:32.995Z,98078.22
2022-12-14T00:51:00.593Z,98091.25
2022-12-14T00:53:28.050Z,98071.84
2022-12-14T00:55:55.668Z,98060.25
2022-12-14T00:58:24.092Z,98056.16
2022-12-14T01:00:59.492Z,98042.19
2022-12-14T01:03:27.051Z,98030.09
2022-12-14T01:05:56.022Z,98030.97
2022-12-14T01:08:23.544Z,98020.91
2022-12-14T01:10:50.797Z,98016.22
2022-12-14T01:13:18.292Z,98016.63
2022-12-14T01:15:45.633Z,98016.25
2022-12-14T01:18:13.201Z,98015.09
2022-12-14T01:20:40.506Z,98020.88
2022-12-14T01:23:09.469Z,98009.50
2022-12-14T01:25:36.774Z,97997.72
2022-12-14T01:28:04.227Z,97997.91
2022-12-14T01:30:31.610Z,98000.84
2022-12-14T01:32:58.801Z,98000.69
2022-12-14T01:35:26.148Z,98005.03
2022-12-14T01:37:53.427Z,98006.84
2022-12-14T01:40:22.348Z,97996.88
2022-12-14T01:42:49.567Z,97991.06
2022-12-14T01:45:21.698Z,97995.25
2022-12-14T01:47:53.045Z,97994.28
2022-12-14T01:50:26.905Z,97994.00
2022-12-14T01:52:58.069Z,97991.13
2022-12-14T01:55:29.296Z,97989.91
2022-12-14T01:58:01.444Z,97974.69
2022-12-14T02:00:29.000Z,97963.31
2022-12-14T02:03:00.935Z,97957.38
2022-12-14T02:05:30.034Z,97975.34
2022-12-14T02:07:57.764Z,97980.13
2022-12-14T02:10:29.012Z,97968.06
2022-12-14T02:13:02.942Z,97957.88
2022-12-14T02:15:31.070Z,97964.66
2022-12-14T02:17:59.597Z,97958.97
2022-12-14T02:20:34.337Z,97962.16
2022-12-14T02:23:29.640Z,97969.84
2022-12-14T02:26:30.308Z,97961.63
2022-12-14T02:29:15.879Z,97961.47
2022-12-14T02:31:54.063Z,97962.16
2022-12-14T02:34:32.478Z,97953.97
2022-12-14T02:37:08.350Z,97960.56
2022-12-14T02:39:47.426Z,97969.22
2022-12-14T02:42:20.061Z,97961.22
2022-12-14T02:44:52.842Z,97963.78
2022-12-14T02:47:26.611Z,97949.38
2022-12-14T02:50:05.157Z,97946.00
2022-12-14T02:52:41.730Z,97938.69
2022-12-14T02:55:16.219Z,97937.44
2022-12-14T02:57:49.746Z,97935.84
2022-12-14T03:00:18.506Z,97937.63
2022-12-14T03:02:49.344Z,97924.09
2022-12-14T03:05:16.904Z,97925.06
2022-12-14T03:07:48.719Z,97927.66
2022-12-14T03:10:34.121Z,97914.50
2022-12-14T03:13:11.640Z,97919.47
2022-12-14T03:15:43.105Z,97915.66
2022-12-14T03:18:15.286Z,97908.25
2022-12-14T03:20:45.202Z,97916.38
2022-12-14T03:23:17.567Z,97906.31
2022-12-14T03:25:48.787Z,97909.69
2022-12-14T03:28:20.920Z,97910.69
2022-12-14T03:31:00.946Z,97907.31
2022-12-14T03:33:32.669Z,97902.59
2022-12-14T03:36:07.045Z,97895.72
2022-12-14T03:38:39.848Z,97884.97
2022-12-14T03:41:15.670Z,97891.25
2022-12-14T03:43:53.496Z,97885.28
2022-12-14T03:46:32.099Z,97891.34
2022-12-14T03:49:11.871Z,97892.34
2022-12-14T03:51:49.800Z,97883.19
2022-12-14T03:54:25.454Z,97895.13
2022-12-14T03:56:58.180Z,97882.72
2022-12-14T03:59:29.641Z,97899.59
2022-12-14T04:02:04.526Z,97898.31
2022-12-14T04:04:36.830Z,97890.03
2022-12-14T04:07:12.203Z,97894.31
2022-12-14T04:09:49.614Z,97891.03
2022-12-14T04:12:45.353Z,97893.75
2022-12-14T04:15:39.290Z,97891.25
2022-12-14T04:18:29.794Z,97870.53
2022-12-14T04:21:04.880Z,97879.94
2022-12-14T04:23:55.182Z,97857.28
2022-12-14T04:26:27.790Z,97873.81
2022-12-14T04:29:18.016Z,97879.69
2022-12-14T04:31:50.945Z,97882.06
2022-12-14T04:34:21.177Z,97877.75
2022-12-14T04:36:56.156Z,97882.81
2022-12-14T04:39:29.790Z,97884.13
2022-12-14T04:42:01.019Z,97883.59
2022-12-14T04:44:34.021Z,97886.91
2022-12-14T04:47:03.973Z,97890.19
2022-12-14T04:49:39.262Z,97892.03
2022-12-14T04:52:13.991Z,97895.06
2022-12-14T04:54:46.552Z,97869.91
2022-12-14T04:57:21.865Z,97883.59
2022-12-14T04:59:49.931Z,97883.41
2022-12-14T05:02:22.924Z,97881.91
2022-12-14T05:04:59.359Z,97889.13
2022-12-14T05:07:36.802Z,97882.53
2022-12-14T05:10:10.403Z,97877.53
2022-12-14T05:12:43.552Z,97875.56
2022-12-14T05:15:15.470Z,97876.75
2022-12-14T05:17:43.305Z,97875.13
2022-12-14T05:20:16.019Z,97870.94
2022-12-14T05:22:44.967Z,97875.78
2022-12-14T05:25:12.274Z,97874.97
2022-12-14T05:27:40.017Z,97878.25
2022-12-14T05:30:08.587Z,97878.94
2022-12-14T05:32:35.858Z,97874.84
2022-12-14T05:35:04.638Z,97875.94
2022-12-14T05:37:32.213Z,97871.69
2022-12-14T05:40:00.832Z,97870.78
2022-12-14T05:42:28.434Z,97873.28
2022-12-14T05:44:55.707Z,97875.56
2022-12-14T05:47:25.030Z,97881.94
2022-12-14T05:49:52.542Z,97876.00
2022-12-14T05:52:20.464Z,97875.78
2022-12-14T05:54:47.852Z,97872.41
2022-12-14T05:57:16.674Z,97875.88
2022-12-14T05:59:43.881Z,97880.16
2022-12-14T06:02:11.900Z,97883.34
2022-12-14T06:04:39.385Z,97887.38
2022-12-14T06:07:09.691Z,97883.78
2022-12-14T06:09:37.031Z,97885.28
2022-12-14T06:12:04.719Z,97887.00
2022-12-14T06:14:33.594Z,97892.59
2022-12-14T06:17:00.891Z,97900.00
2022-12-14T06:19:28.112Z,97900.69
2022-12-14T06:21:55.403Z,97902.19
2022-12-14T06:24:22.990Z,97906.97
2022-12-14T06:26:50.473Z,97908.69
2022-12-14T06:29:20.153Z,97915.34
2022-12-14T06:31:49.695Z,97921.94
2022-12-14T06:34:18.464Z,97916.06
2022-12-14T06:36:47.082Z,97913.56
2022-12-14T06:39:16.388Z,97908.00
2022-12-14T06:41:44.480Z,97918.72
2022-12-14T06:44:14.328Z,97908.34
2022-12-14T06:46:42.714Z,97918.13
2022-12-14T06:49:15.000Z,97893.75
2022-12-14T06:51:42.688Z,97912.34
2022-12-14T06:54:11.462Z,97922.03
2022-12-14T06:56:39.319Z,97918.56
2022-12-14T06:59:08.717Z,97923.72
2022-12-14T07:01:37.043Z,97926.13
2022-12-14T07:04:05.061Z,97930.31
2022-12-14T07:06:36.539Z,97930.50
2022-12-14T07:09:06.197Z,97938.88
2022-12-14T07:11:33.916Z,97938.88
2022-12-14T07:14:03.341Z,97943.84
2022-12-14T07:16:30.793Z,97945.47
2022-12-14T07:18:58.886Z,97953.25
2022-12-14T07:21:26.723Z,97945.63
2022-12-14T07:23:55.769Z,97947.91
2022-12-14T07:26:25.123Z,97953.50
2022-12-14T07:28:53.635Z,97952.72
2022-12-14T07:31:22.249Z,97955.91
2022-12-14T07:33:51.834Z,97957.53
2022-12-14T07:36:20.732Z,97966.63
2022-12-14T07:38:49.576Z,97950.69
2022-12-14T07:41:22.745Z,97951.28
2022-12-14T07:43:51.892Z,97965.16
2022-12-14T07:46:21.314Z,97981.28
2022-12-14T07:48:50.935Z,97954.50
2022-12-14T07:51:20.247Z,97979.03
2022-12-14T07:53:48.300Z,97984.72
2022-12-14T07:56:18.664Z,97993.53
2022-12-14T07:58:46.674Z,97993.97
2022-12-14T08:01:17.038Z,97995.00
2022-12-14T08:03:46.965Z,97994.00
2022-12-14T08:06:16.013Z,97990.13
2022-12-14T08:08:43.507Z,98002.06
2022-12-14T08:11:11.603Z,98000.16
2022-12-14T08:13:40.674Z,98001.88
2022-12-14T08:16:10.074Z,97993.88
2022-12-14T08:18:37.900Z,98001.88
2022-12-14T08:21:07.186Z,98005.16
2022-12-14T08:23:35.117Z,98016.25
2022-12-14T08:26:04.840Z,98014.13
2022-12-14T08:28:33.908Z,98015.31
2022-12-14T08:31:06.815Z,98031.44
2022-12-14T08:33:34.803Z,98039.56
2022-12-14T08:36:07.295Z,98042.06
2022-12-14T08:38:34.632Z,98040.97
2022-12-14T08:41:03.575Z,98031.47
2022-12-14T08:43:31.356Z,98033.84
2022-12-14T08:45:59.085Z,98046.72
2022-12-14T08:48:28.158Z,98043.72
2022-12-14T08:50:55.564Z,98046.34
2022-12-14T08:53:22.789Z,98049.06
2022-12-14T08:55:50.098Z,98061.94
2022-12-14T08:58:17.449Z,98061.34
2022-12-14T09:00:44.858Z,98067.53
2022-12-14T09:03:12.252Z,98077.09
2022-12-14T09:05:40.962Z,98076.41
2022-12-14T09:08:08.538Z,98079.47
2022-12-14T09:10:35.835Z,98094.47
2022-12-14T09:13:03.211Z,98087.84
2022-12-14T09:15:30.705Z,98091.25
2022-12-14T09:17:58.041Z,98102.28
2022-12-14T09:20:25.340Z,98099.09
2022-12-14T09:22:54.049Z,98107.41
2022-12-14T09:25:21.362Z,98112.41
2022-12-14T09:27:48.673Z,98113.88
2022-12-14T09:30:15.871Z,98126.09
2022-12-14T09:32:44.802Z,98123.72
2022-12-14T09:35:18.176Z,98139.22
2022-12-14T09:37:45.430Z,98139.31
2022-12-14T09:40:14.460Z,98153.84
2022-12-14T09:42:56.199Z,98161.28
2022-12-14T09:45:30.459Z,98160.09
2022-12-14T09:48:04.349Z,98157.69
2022-12-14T09:50:32.137Z,98167.97
2022-12-14T09:53:01.922Z,98168.75
2022-12-14T09:55:35.141Z,98173.97
2022-12-14T09:58:07.652Z,98169.56
2022-12-14T10:00:49.649Z,98180.78
2022-12-14T10:03:34.996Z,98164.66
2022-12-14T10:06:25.310Z,98183.91
2022-12-14T10:09:00.108Z,98184.50
2022-12-14T10:11:40.659Z,98188.41
2022-12-14T10:14:19.616Z,98194.94
2022-12-14T10:16:55.182Z,98196.13
2022-12-14T10:19:33.833Z,98215.97
2022-12-14T10:22:04.647Z,98224.91
2022-12-14T10:24:37.225Z,98232.53
2022-12-14T10:27:08.325Z,98236.56
2022-12-14T10:29:41.479Z,98244.66
2022-12-14T10:32:19.691Z,98249.38
2022-12-14T10:34:47.514Z,98249.97
2022-12-14T10:37:26.189Z,98260.47
2022-12-14T10:40:22.062Z,98265.06
2022-12-14T10:43:12.535Z,98274.50
2022-12-14T10:45:47.204Z,98280.69
2022-12-14T10:48:37.358Z,98264.78
2022-12-14T10:51:11.047Z,98294.63
2022-12-14T10:53:42.948Z,98286.50
2022-12-14T10:56:16.422Z,98284.81
2022-12-14T10:58:45.474Z,98305.75
2022-12-14T11:01:15.668Z,98305.94
2022-12-14T11:03:49.446Z,98320.34
2022-12-14T11:06:19.792Z,98334.78
2022-12-14T11:08:49.136Z,98332.69
2022-12-14T11:11:19.789Z,98333.00
2022-12-14T11:13:54.624Z,98344.41
2022-12-14T11:16:33.753Z,98346.78
2022-12-14T11:19:04.896Z,98371.94
2022-12-14T11:21:34.033Z,98369.81
2022-12-14T11:24:01.582Z,98369.00
2022-12-14T11:26:34.053Z,98385.41
2022-12-14T11:29:06.036Z,98399.09
2022-12-14T11:31:36.890Z,98411.31
2022-12-14T11:34:06.635Z,98417.59
2022-12-14T11:36:36.641Z,98422.22
2022-12-14T11:39:07.151Z,98411.00
2022-12-14T11:41:36.443Z,98431.53
2022-12-14T11:44:21.574Z,98442.44
2022-12-14T11:46:54.146Z,98432.59
2022-12-14T11:49:25.060Z,98453.66
2022-12-14T11:52:02.734Z,98476.31
2022-12-14T11:54:31.027Z,98471.31
2022-12-14T11:57:02.985Z,98483.81
2022-12-14T11:59:38.833Z,98462.94
2022-12-14T12:02:23.124Z,98495.72
2022-12-14T12:04:56.246Z,98502.44
2022-12-14T12:07:25.678Z,98517.44
2022-12-14T12:09:53.288Z,98529.88
2022-12-14T12:12:23.390Z,98528.25
2022-12-14T12:14:56.802Z,98539.28
2022-12-14T12:17:38.666Z,98548.41
2022-12-14T12:20:17.910Z,98541.72
2022-12-14T12:22:49.644Z,98557.44
2022-12-14T12:25:30.863Z,98566.13
2022-12-14T12:28:06.133Z,98573.38
2022-12-14T12:30:38.784Z,98577.03
2022-12-14T12:33:17.780Z,98580.78
2022-12-14T12:35:50.491Z,98588.72
2022-12-14T12:38:26.167Z,98599.25
2022-12-14T12:41:01.275Z,98600.13
2022-12-14T12:43:34.622Z,98614.56
2022-12-14T12:46:10.850Z,98616.94
2022-12-14T12:48:43.355Z,98606.50
2022-12-14T12:51:15.102Z,98640.41
2022-12-14T12:53:46.561Z,98646.53
2022-12-14T12:56:18.849Z,98638.19
2022-12-14T12:58:52.600Z,98650.44
2022-12-14T13:01:28.184Z,98666.31
2022-12-14T13:03:59.948Z,98669.13
2022-12-14T13:06:31.994Z,98671.88
2022-12-14T13:09:09.589Z,98683.41
2022-12-14T13:11:39.903Z,98690.97
2022-12-14T13:14:17.371Z,98699.44
2022-12-14T13:16:47.858Z,98700.31
2022-12-14T13:22:15.077Z,98718.06
2022-12-14T13:24:44.287Z,98727.06
2022-12-14T13:27:47.863Z,98723.84
2022-12-14T13:30:24.918Z,98736.56
2022-12-14T13:33:20.640Z,98750.63
2022-12-14T13:36:16.080Z,98752.56
2022-12-14T13:39:02.731Z,98761.56
2022-12-14T13:41:36.867Z,98761.75
2022-12-14T13:44:43.823Z,98756.09
2022-12-14T13:47:15.669Z,98770.13
2022-12-14T13:50:18.628Z,98771.25
2022-12-14T13:52:44.527Z,98782.53
2022-12-14T13:55:27.718Z,98779.31
2022-12-14T13:58:07.223Z,98788.50
2022-12-14T14:00:59.549Z,98777.22
2022-12-14T14:03:56.615Z,98803.34
2022-12-14T14:06:37.016Z,98799.47
2022-12-14T14:09:40.375Z,98815.16
2022-12-14T14:12:40.370Z,98824.44
2022-12-14T14:15:31.782Z,98810.50
2022-12-14T14:18:07.194Z,98832.81
2022-12-14T14:20:39.277Z,98824.91
2022-12-14T14:23:30.324Z,98839.56
2022-12-14T14:26:21.346Z,98851.19
2022-12-14T14:29:05.155Z,98840.78
2022-12-14T14:31:51.878Z,98860.47
2022-12-14T14:34:39.669Z,98859.44
2022-12-14T14:37:27.168Z,98856.81
2022-12-14T14:40:38.333Z,98879.41
2022-12-14T14:43:22.889Z,98893.91
2022-12-14T14:45:52.662Z,98880.53
2022-12-14T14:48:32.722Z,98882.69
2022-12-14T14:51:19.068Z,98888.38
2022-12-14T14:53:46.851Z,98894.13
2022-12-14T14:56:47.560Z,98900.00
2022-12-14T14:59:40.455Z,98905.00
2022-12-14T15:02:29.232Z,98908.59
2022-12-14T15:04:57.434Z,98910.16
2022-12-14T15:07:28.775Z,98905.09
2022-12-14T15:10:04.444Z,98913.53
2022-12-14T15:12:41.948Z,98930.97
2022-12-14T15:15:17.591Z,98924.50
2022-12-14T15:17:45.768Z,98925.59
2022-12-14T15:20:23.216Z,98925.44
2022-12-14T15:22:52.524Z,98938.09
2022-12-14T15:25:23.836Z,98921.19
2022-12-14T15:27:53.351Z,98940.81
2022-12-14T15:30:23.443Z,98935.59
2022-12-14T15:32:56.783Z,98938.16
2022-12-14T15:35:26.940Z,98928.69
2022-12-14T15:38:00.117Z,98923.03
2022-12-14T15:40:32.794Z,98959.66
2022-12-14T15:43:03.851Z,98956.75
2022-12-14T15:45:34.837Z,98953.06
2022-12-14T15:48:14.373Z,98961.06
2022-12-14T15:50:44.463Z,98979.00
2022-12-14T15:53:15.064Z,98966.88
2022-12-14T15:55:43.326Z,98971.56
2022-12-14T15:58:17.977Z,98962.84
2022-12-14T16:00:48.273Z,98968.94
2022-12-14T16:03:25.160Z,98984.81
2022-12-14T16:05:53.248Z,98985.91
2022-12-14T16:08:22.222Z,98993.53
2022-12-14T16:10:51.921Z,99005.16
2022-12-14T16:13:27.467Z,98999.81
2022-12-14T16:15:57.095Z,99012.44
2022-12-14T16:18:25.395Z,98996.63
2022-12-14T16:20:57.980Z,99016.69
2022-12-14T16:23:30.199Z,99023.16
2022-12-14T16:26:00.185Z,99024.19
2022-12-14T16:28:31.421Z,99002.44
2022-12-14T16:31:02.663Z,99020.97
2022-12-14T16:33:32.125Z,99047.91
2022-12-14T16:36:07.330Z,99049.25
2022-12-14T16:38:40.450Z,99058.28
2022-12-14T16:41:07.685Z,99058.16
2022-12-14T16:43:38.152Z,99059.78
2022-12-14T16:46:12.805Z,99052.63
2022-12-14T16:48:43.681Z,99070.72
2022-12-14T16:51:58.294Z,99066.06
2022-12-14T16:54:24.133Z,99065.06
2022-12-14T16:56:56.423Z,99076.69
2022-12-14T16:59:30.387Z,99081.69
2022-12-14T17:01:58.222Z,99083.88
2022-12-14T17:04:33.589Z,99092.34
2022-12-14T17:07:00.992Z,99093.16
2022-12-14T17:09:30.038Z,99100.78
2022-12-14T17:12:00.499Z,99099.78
2022-12-14T17:14:29.473Z,99096.53
2022-12-14T17:17:01.037Z,99094.09
2022-12-14T17:19:32.617Z,99098.44
2022-12-14T17:22:01.010Z,99099.09
2022-12-14T17:24:30.983Z,99089.53
2022-12-14T17:26:58.454Z,99113.97
2022-12-14T17:29:30.060Z,99118.00
2022-12-14T17:32:01.312Z,99114.59
2022-12-14T17:34:29.552Z,99118.88
2022-12-14T17:36:57.185Z,99126.25
2022-12-14T17:39:25.060Z,99131.25
2022-12-14T17:41:52.476Z,99132.69
2022-12-14T17:44:21.715Z,99130.19
2022-12-14T17:46:50.645Z,99141.81
2022-12-14T17:49:34.145Z,99143.28
2022-12-14T17:52:04.298Z,99139.91
2022-12-14T17:54:32.531Z,99155.16
2022-12-14T17:57:00.534Z,99152.25
2022-12-14T17:59:28.262Z,99146.59
2022-12-14T18:01:57.100Z,99156.94
2022-12-14T18:04:24.438Z,99154.63
2022-12-14T18:06:53.495Z,99163.66
2022-12-14T18:09:21.598Z,99171.09
2022-12-14T18:12:14.469Z,99164.03
2022-12-14T18:14:36.308Z,99179.00
2022-12-14T18:17:09.804Z,99178.88
2022-12-14T18:19:39.332Z,99177.38
2022-12-14T18:22:07.234Z,99177.47
2022-12-14T18:24:34.597Z,99189.88
2022-12-14T18:27:01.922Z,99186.31
2022-12-14T18:29:30.178Z,99187.97
2022-12-14T18:31:57.501Z,99202.47
2022-12-14T18:34:27.085Z,99206.94
2022-12-14T18:36:55.314Z,99207.88
2022-12-14T18:39:22.775Z,99203.84
2022-12-14T18:41:50.063Z,99211.41
2022-12-14T18:44:17.405Z,99220.53
2022-12-14T18:46:49.209Z,99217.22
2022-12-14T18:49:17.432Z,99226.19
2022-12-14T18:51:46.306Z,99228.16
2022-12-14T18:54:14.455Z,99219.22
2022-12-14T18:56:42.312Z,99218.69
2022-12-14T18:59:09.997Z,99232.75
2022-12-14T19:01:37.863Z,99225.78
2022-12-14T19:04:07.798Z,99237.06
2022-12-14T19:06:44.634Z,99249.09
2022-12-14T19:09:14.509Z,99258.75
2022-12-14T19:11:43.019Z,99264.34
2022-12-14T19:14:11.581Z,99264.63
2022-12-14T19:16:40.083Z,99267.19
2022-12-14T19:19:08.308Z,99272.66
2022-12-14T19:21:35.679Z,99278.53
2022-12-14T19:24:03.036Z,99282.03
2022-12-14T19:26:31.780Z,99278.91
2022-12-14T19:28:59.316Z,99284.53
2022-12-14T19:31:27.718Z,99295.34
2022-12-14T19:33:55.025Z,99291.88
2022-12-14T19:36:22.385Z,99302.16
2022-12-14T19:38:51.066Z,99297.59
2022-12-14T19:41:21.442Z,99313.75
2022-12-14T19:43:54.129Z,99314.66
2022-12-14T19:46:22.610Z,99320.50
2022-12-14T19:48:51.639Z,99309.84
2022-12-14T19:51:19.507Z,99317.97
2022-12-14T19:53:48.521Z,99324.34
2022-12-14T19:56:18.325Z,99309.09
2022-12-14T19:58:47.698Z,99344.63
2022-12-14T20:01:18.541Z,99337.19
2022-12-14T20:03:46.096Z,99332.38
2022-12-14T20:06:14.337Z,99340.63
2022-12-14T20:08:41.740Z,99332.81
2022-12-14T20:11:11.822Z,99334.94
2022-12-14T20:13:40.168Z,99350.63
2022-12-14T20:16:08.521Z,99354.81
2022-12-14T20:18:37.226Z,99352.56
2022-12-14T20:21:06.763Z,99333.16
2022-12-14T20:23:38.018Z,99356.50
2022-12-14T20:26:07.524Z,99364.94
2022-12-14T20:28:35.916Z,99374.66
2022-12-14T20:31:06.275Z,99361.59
2022-12-14T20:33:33.977Z,99378.25
2022-12-14T20:36:03.712Z,99378.97
2022-12-14T20:38:31.916Z,99380.84
2022-12-14T20:41:05.093Z,99388.97
2022-12-14T20:43:33.504Z,99389.81
2022-12-14T20:46:01.053Z,99391.75
2022-12-14T20:48:28.496Z,99387.63
2022-12-14T20:51:00.740Z,99404.03
2022-12-14T20:53:30.764Z,99406.06
2022-12-14T20:56:03.976Z,99411.69
2022-12-14T20:58:31.354Z,99422.47
2022-12-14T21:01:05.737Z,99415.91
2022-12-14T21:03:33.376Z,99423.34
2022-12-14T21:06:01.494Z,99432.53
2022-12-14T21:08:31.673Z,99439.16
2022-12-14T21:11:24.955Z,99434.16
2022-12-14T21:13:52.386Z,99435.84
2022-12-14T21:16:19.960Z,99437.50
2022-12-14T21:18:47.334Z,99434.38
2022-12-14T21:21:14.717Z,99439.34
2022-12-14T21:23:43.414Z,99444.28
2022-12-14T21:26:10.924Z,99453.09
2022-12-14T21:28:38.365Z,99438.28
2022-12-14T21:31:07.506Z,99448.56
2022-12-14T21:33:37.943Z,99448.31
2022-12-14T21:36:08.757Z,99461.75
2022-12-14T21:38:36.195Z,99459.06
2022-12-14T21:41:24.242Z,99462.50
2022-12-14T21:43:52.454Z,99455.53
2022-12-14T21:46:20.619Z,99449.91
2022-12-14T21:48:48.056Z,99462.50
2022-12-14T21:51:18.022Z,99457.41
2022-12-14T21:53:58.872Z,99464.81
2022-12-14T21:56:48.246Z,99468.97
2022-12-14T21:59:16.931Z,99467.44
2022-12-14T22:01:44.567Z,99463.06
2022-12-14T22:04:12.060Z,99468.97
2022-12-14T22:06:39.432Z,99471.47
2022-12-14T22:09:07.178Z,99470.75
2022-12-14T22:11:35.968Z,99471.66
2022-12-14T22:14:03.286Z,99477.38
2022-12-14T22:16:31.686Z,99479.91
2022-12-14T22:18:59.643Z,99483.34
2022-12-14T22:21:27.608Z,99490.72
2022-12-14T22:23:55.699Z,99490.81
2022-12-14T22:26:23.992Z,99497.69
2022-12-14T22:28:52.866Z,99486.09
2022-12-14T22:31:20.891Z,99496.31
2022-12-14T22:33:49.714Z,99498.00
2022-12-14T22:36:17.951Z,99499.25
2022-12-14T22:38:45.567Z,99507.56
2022-12-14T22:41:15.299Z,99514.53
2022-12-14T22:43:43.215Z,99508.94
2022-12-14T22:46:13.753Z,99521.59
2022-12-14T22:48:41.277Z,99527.53
2022-12-14T22:51:13.348Z,99520.25
2022-12-14T22:53:40.773Z,99537.25
2022-12-14T22:56:16.260Z,99539.25
2022-12-14T22:58:49.363Z,99537.72
2022-12-14T23:01:19.870Z,99544.66
2022-12-14T23:03:51.868Z,99542.59
2022-12-14T23:06:20.280Z,99539.56
2022-12-14T23:09:07.581Z,99538.72
2022-12-14T23:11:54.079Z,99544.53
2022-12-14T23:14:40.207Z,99550.22
2022-12-14T23:17:27.894Z,99561.47
2022-12-14T23:20:13.578Z,99558.13
2022-12-14T23:22:59.355Z,99560.72
2022-12-14T23:25:44.994Z,99562.44
2022-12-14T23:28:31.112Z,99561.78
2022-12-14T23:31:17.249Z,99570.91
2022-12-14T23:34:04.697Z,99570.06
2022-12-14T23:36:50.424Z,99574.34
2022-12-14T23:39:36.739Z,99580.78
2022-12-14T23:42:22.975Z,99571.88
2022-12-14T23:45:09.006Z,99572.88
2022-12-14T23:47:54.720Z,99561.13
2022-12-14T23:50:41.683Z,99568.75
2022-12-14T23:53:28.255Z,99579.53
2022-12-14T23:56:14.656Z,99586.97
2022-12-14T23:59:00.464Z,99594.59
